< < Back
Terminal Aerodrome Forecast


Current Version              Previous Versions:   1  2  3  4  5  6  7  8  9  

Terminal Aerodrome Forecast

062
FTUS42 KILM 231134
TAFILM
TAF
KILM 231134Z 2312/2412 VRB04KT P6SM SKC
     FM231400 07008KT P6SM FEW200
     FM231800 09010KT P6SM FEW040 FEW150
     FM240000 07004KT P6SM SCT150=



Latest METAR

086
SAUS70 KWBC 231600 RRM
MTRILM
METAR KILM 231553Z 11006KT 10SM CLR 24/08 A3041 RMK AO2 SLP296
T02440083


USA.gov is the U.S. government's official web portal to all federal, state and local government web resources and services.